Whitland, United Kingdom
Current Conditions -  °F | °C
As of 12:50 PM on Sunday 23 Nov 2014 (Local Time) from EGOP Reporting Station
Few Clouds Few Clouds  
Wind Chill: 50°   Ceiling: Unl
Heat Index: 50°   Visibility: 6mi
Dew Point: 41°   Wind: 10mph
Humidity: 71%   Direction: 350°N
Pressure: 30.09"   Gusts: NA
Location:  51.82°N, 4.61°W
Report Text: EGOP 231250Z AUTO 35009KT 9999 // FEW030/// 10/05 Q1019
Loading
Personal Weather Stations






























Interactive Weather Map New forecast layout! Learn more

10-Day Weather Forecast

Advertisements
Track Severe Weather on mobile